Terminal Aerodrome Forecast
Issued by NWS Grand Rapids, MI

Home | Current Version | Previous Version | Text Only | Print | Product List | Glossary On
Versions: 1 2 3 4 5 6 7 8 9 10 11 12 13 14 15
000
FTUS43 KGRR 240530
TAFGRR
TAF
KGRR 240530Z 2406/2506 14005KT P6SM OVC100
     FM240900 12005KT P6SM VCSH OVC025
     FM241100 08005KT P6SM -SHRA OVC015
     FM241400 09007KT 2SM -RA BR OVC007
     FM242000 07008KT 4SM BR OVC015
     FM250000 VRB05KT 4SM -SHRA BR OVC015=

USA.gov is the U.S. government's official web portal to all federal, state and local government web resources and services.